createdAt,value
2022-12-03T00:02:04.487Z,95140.56
2022-12-03T00:04:31.693Z,95145.72
2022-12-03T00:06:58.915Z,95138.09
2022-12-03T00:09:26.073Z,95137.50
2022-12-03T00:11:53.593Z,95138.47
2022-12-03T00:14:22.312Z,95139.47
2022-12-03T00:16:49.876Z,95133.66
2022-12-03T00:19:17.033Z,95125.44
2022-12-03T00:21:44.120Z,95131.06
2022-12-03T00:24:11.233Z,95134.38
2022-12-03T00:26:38.573Z,95128.38
2022-12-03T00:29:05.814Z,95122.53
2022-12-03T00:31:34.476Z,95131.22
2022-12-03T00:34:01.794Z,95123.78
2022-12-03T00:36:28.973Z,95127.84
2022-12-03T00:38:56.035Z,95136.00
2022-12-03T00:41:23.374Z,95136.81
2022-12-03T00:43:50.413Z,95140.34
2022-12-03T00:46:21.371Z,95137.97
2022-12-03T00:48:50.533Z,95143.47
2022-12-03T00:51:17.793Z,95153.88
2022-12-03T00:53:44.955Z,95157.53
2022-12-03T00:56:12.414Z,95157.94
2022-12-03T00:58:39.495Z,95150.94
2022-12-03T01:01:06.653Z,95151.31
2022-12-03T01:03:33.775Z,95147.31
2022-12-03T01:06:02.394Z,95153.28
2022-12-03T01:08:29.576Z,95152.38
2022-12-03T01:10:56.712Z,95147.75
2022-12-03T01:13:23.853Z,95155.13
2022-12-03T01:15:50.981Z,95147.03
2022-12-03T01:18:18.276Z,95150.63
2022-12-03T01:20:45.453Z,95143.75
2022-12-03T01:23:13.937Z,95148.72
2022-12-03T01:25:41.032Z,95147.09
2022-12-03T01:28:08.102Z,95146.13
2022-12-03T01:30:35.199Z,95143.50
2022-12-03T01:33:02.233Z,95143.13
2022-12-03T01:35:29.295Z,95143.38
2022-12-03T01:37:56.372Z,95145.38
2022-12-03T01:40:25.134Z,95137.56
2022-12-03T01:42:52.251Z,95139.94
2022-12-03T01:45:23.939Z,95133.94
2022-12-03T01:47:51.411Z,95130.59
2022-12-03T01:50:27.380Z,95135.25
2022-12-03T01:52:58.394Z,95140.38
2022-12-03T01:55:27.391Z,95140.66
2022-12-03T01:57:57.553Z,95138.38
2022-12-03T02:00:27.173Z,95142.06
2022-12-03T02:02:57.198Z,95139.63
2022-12-03T02:05:26.866Z,95138.69
2022-12-03T02:07:55.013Z,95144.31
2022-12-03T02:10:31.251Z,95140.09
2022-12-03T02:13:03.010Z,95139.56
2022-12-03T02:15:30.550Z,95140.56
2022-12-03T02:17:57.912Z,95140.53
2022-12-03T02:20:25.335Z,95134.50
2022-12-03T02:23:05.151Z,95141.75
2022-12-03T02:25:36.610Z,95146.25
2022-12-03T02:28:06.270Z,95148.69
2022-12-03T02:30:34.632Z,95146.50
2022-12-03T02:33:02.553Z,95159.91
2022-12-03T02:35:34.056Z,95166.16
2022-12-03T02:38:08.517Z,95157.31
2022-12-03T02:40:38.191Z,95156.34
2022-12-03T02:43:06.611Z,95153.69
2022-12-03T02:45:38.367Z,95150.84
2022-12-03T02:48:11.566Z,95149.56
2022-12-03T02:50:44.025Z,95150.38
2022-12-03T02:53:17.817Z,95149.78
2022-12-03T02:55:47.559Z,95140.75
2022-12-03T02:58:16.098Z,95137.34
2022-12-03T03:00:44.927Z,95135.06
2022-12-03T03:03:12.985Z,95136.69
2022-12-03T03:05:41.308Z,95147.91
2022-12-03T03:08:10.808Z,95144.09
2022-12-03T03:10:41.027Z,95142.22
2022-12-03T03:13:12.343Z,95146.31
2022-12-03T03:15:40.880Z,95142.84
2022-12-03T03:18:10.241Z,95131.28
2022-12-03T03:20:38.360Z,95144.25
2022-12-03T03:23:12.994Z,95153.41
2022-12-03T03:25:43.779Z,95154.13
2022-12-03T03:28:14.105Z,95149.97
2022-12-03T03:30:43.188Z,95148.19
2022-12-03T03:33:12.620Z,95145.47
2022-12-03T03:35:40.859Z,95147.66
2022-12-03T03:38:10.022Z,95146.13
2022-12-03T03:40:38.980Z,95147.91
2022-12-03T03:43:08.600Z,95144.00
2022-12-03T03:45:37.148Z,95142.44
2022-12-03T03:48:04.525Z,95138.50
2022-12-03T03:50:33.100Z,95134.66
2022-12-03T03:53:02.903Z,95136.25
2022-12-03T03:55:30.930Z,95127.13
2022-12-03T03:57:59.049Z,95140.22
2022-12-03T04:00:26.449Z,95141.53
2022-12-03T04:02:55.049Z,95143.25
2022-12-03T04:05:24.459Z,95133.31
2022-12-03T04:07:51.638Z,95144.69
2022-12-03T04:10:19.061Z,95140.34
2022-12-03T04:12:46.120Z,95133.50
2022-12-03T04:15:13.131Z,95131.06
2022-12-03T04:17:40.140Z,95132.88
2022-12-03T04:20:09.820Z,95138.88
2022-12-03T04:22:36.940Z,95134.72
2022-12-03T04:25:04.640Z,95142.69
2022-12-03T04:27:31.724Z,95139.06
2022-12-03T04:29:58.840Z,95146.06
2022-12-03T04:32:25.909Z,95141.53
2022-12-03T04:34:53.237Z,95149.13
2022-12-03T04:37:22.012Z,95146.53
2022-12-03T04:39:49.118Z,95148.53
2022-12-03T04:42:16.631Z,95140.25
2022-12-03T04:44:43.684Z,95135.91
2022-12-03T04:47:12.484Z,95138.59
2022-12-03T04:49:41.759Z,95133.94
2022-12-03T04:52:09.900Z,95137.50
2022-12-03T04:54:39.668Z,95140.66
2022-12-03T04:57:07.810Z,95150.56
2022-12-03T04:59:36.348Z,95148.19
2022-12-03T05:02:04.832Z,95148.38
2022-12-03T05:04:32.078Z,95142.38
2022-12-03T05:06:59.269Z,95140.22
2022-12-03T05:09:26.453Z,95137.47
2022-12-03T05:11:55.051Z,95136.84
2022-12-03T05:14:22.082Z,95127.00
2022-12-03T05:16:49.167Z,95128.84
2022-12-03T05:19:16.302Z,95131.50
2022-12-03T05:21:43.463Z,95125.09
2022-12-03T05:24:10.563Z,95120.22
2022-12-03T05:26:37.644Z,95124.91
2022-12-03T05:29:06.143Z,95124.09
2022-12-03T05:31:33.344Z,95124.31
2022-12-03T05:34:00.565Z,95130.31
2022-12-03T05:36:27.690Z,95121.53
2022-12-03T05:38:54.810Z,95117.81
2022-12-03T05:41:21.887Z,95103.00
2022-12-03T05:43:49.024Z,95097.63
2022-12-03T05:46:17.763Z,95095.94
2022-12-03T05:48:44.939Z,95100.00
2022-12-03T05:51:12.180Z,95092.88
2022-12-03T05:53:39.277Z,95094.16
2022-12-03T05:56:07.077Z,95095.88
2022-12-03T05:58:34.184Z,95098.41
2022-12-03T06:01:01.346Z,95105.97
2022-12-03T06:03:29.902Z,95095.81
2022-12-03T06:05:57.088Z,95102.88
2022-12-03T06:08:24.107Z,95100.00
2022-12-03T06:10:51.188Z,95101.84
2022-12-03T06:13:18.413Z,95097.44
2022-12-03T06:15:45.592Z,95111.72
2022-12-03T06:18:12.783Z,95110.84
2022-12-03T06:20:41.284Z,95113.72
2022-12-03T06:23:08.364Z,95120.22
2022-12-03T06:25:35.488Z,95117.31
2022-12-03T06:28:02.573Z,95114.75
2022-12-03T06:30:29.687Z,95115.63
2022-12-03T06:32:56.787Z,95111.63
2022-12-03T06:35:23.936Z,95108.78
2022-12-03T06:37:52.474Z,95122.84
2022-12-03T06:40:19.575Z,95123.97
2022-12-03T06:42:46.712Z,95126.97
2022-12-03T06:45:13.856Z,95138.94
2022-12-03T06:47:41.036Z,95135.97
2022-12-03T06:50:09.264Z,95135.25
2022-12-03T06:52:36.887Z,95129.28
2022-12-03T06:55:06.586Z,95131.69
2022-12-03T06:57:33.666Z,95134.63
2022-12-03T07:00:00.746Z,95129.28
2022-12-03T07:02:28.105Z,95125.44
2022-12-03T07:04:55.424Z,95125.28
2022-12-03T07:07:22.662Z,95124.25
2022-12-03T07:09:49.850Z,95123.69
2022-12-03T07:12:18.524Z,95121.59
2022-12-03T07:14:45.570Z,95123.97
2022-12-03T07:17:12.725Z,95125.59
2022-12-03T07:19:39.903Z,95127.47
2022-12-03T07:22:06.963Z,95127.22
2022-12-03T07:24:34.004Z,95126.09
2022-12-03T07:27:01.090Z,95122.53
2022-12-03T07:29:29.667Z,95122.78
2022-12-03T07:31:56.817Z,95130.09
2022-12-03T07:34:24.020Z,95123.09
2022-12-03T07:36:51.196Z,95122.88
2022-12-03T07:39:18.236Z,95124.34
2022-12-03T07:41:45.996Z,95125.94
2022-12-03T07:44:14.922Z,95122.91
2022-12-03T07:46:46.001Z,95126.72
2022-12-03T07:49:13.362Z,95126.34
2022-12-03T07:51:41.555Z,95121.94
2022-12-03T07:54:08.898Z,95109.53
2022-12-03T07:56:35.960Z,95108.94
2022-12-03T07:59:03.095Z,95111.94
2022-12-03T08:01:30.284Z,95105.94
2022-12-03T08:03:58.866Z,95097.50
2022-12-03T08:06:26.410Z,95103.31
2022-12-03T08:08:53.485Z,95101.09
2022-12-03T08:11:20.578Z,95097.53
2022-12-03T08:13:47.717Z,95106.59
2022-12-03T08:16:18.307Z,95102.34
2022-12-03T08:18:47.641Z,95102.94
2022-12-03T08:21:20.084Z,95093.13
2022-12-03T08:23:47.803Z,95096.97
2022-12-03T08:26:22.121Z,95100.59
2022-12-03T08:28:49.381Z,95100.94
2022-12-03T08:31:20.849Z,95099.38
2022-12-03T08:33:50.141Z,95101.56
2022-12-03T08:36:23.122Z,95102.75
2022-12-03T08:38:52.641Z,95100.34
2022-12-03T08:41:20.883Z,95093.16
2022-12-03T08:43:48.022Z,95086.13
2022-12-03T08:46:19.551Z,95096.19
2022-12-03T08:48:48.989Z,95085.94
2022-12-03T08:51:21.942Z,95085.56
2022-12-03T08:53:55.441Z,95084.16
2022-12-03T08:56:29.002Z,95076.56
2022-12-03T08:58:59.303Z,95072.47
2022-12-03T09:01:38.198Z,95078.31
2022-12-03T09:04:31.111Z,95070.72
2022-12-03T09:06:59.701Z,95077.56
2022-12-03T09:09:26.925Z,95086.19
2022-12-03T09:11:54.219Z,95074.28
2022-12-03T09:14:21.870Z,95080.53
2022-12-03T09:16:52.527Z,95086.88
2022-12-03T09:19:19.649Z,95079.78
2022-12-03T09:21:46.803Z,95078.94
2022-12-03T09:24:15.362Z,95075.13
2022-12-03T09:26:42.480Z,95088.84
2022-12-03T09:29:12.405Z,95084.22
2022-12-03T09:31:40.407Z,95089.69
2022-12-03T09:34:08.359Z,95095.78
2022-12-03T09:36:50.679Z,95095.03
2022-12-03T09:39:19.380Z,95102.50
2022-12-03T09:41:46.893Z,95104.72
2022-12-03T09:44:17.981Z,95095.31
2022-12-03T09:46:48.010Z,95094.28
2022-12-03T09:49:18.349Z,95095.75
2022-12-03T09:51:46.349Z,95101.97
2022-12-03T09:54:24.593Z,95088.88
2022-12-03T09:56:53.053Z,95102.38
2022-12-03T09:59:22.126Z,95100.66
2022-12-03T10:01:49.604Z,95101.66
2022-12-03T10:04:17.052Z,95097.34
2022-12-03T10:06:46.070Z,95089.50
2022-12-03T10:09:22.521Z,95096.19
2022-12-03T10:11:51.455Z,95094.03
2022-12-03T10:14:20.640Z,95094.03
2022-12-03T10:16:48.514Z,95086.56
2022-12-03T10:19:22.355Z,95085.09
2022-12-03T10:21:49.722Z,95087.31
2022-12-03T10:24:23.358Z,95078.09
2022-12-03T10:26:54.360Z,95075.72
2022-12-03T10:29:31.328Z,95073.94
2022-12-03T10:32:03.144Z,95061.66
2022-12-03T10:34:32.921Z,95069.09
2022-12-03T10:37:12.265Z,95069.09
2022-12-03T10:39:57.769Z,95064.66
2022-12-03T10:42:28.082Z,95063.91
2022-12-03T10:45:14.560Z,95062.66
2022-12-03T10:47:41.987Z,95058.66
2022-12-03T10:50:19.959Z,95060.22
2022-12-03T10:52:47.367Z,95059.00
2022-12-03T10:55:16.206Z,95060.03
2022-12-03T10:57:46.038Z,95050.72
2022-12-03T11:00:17.638Z,95047.53
2022-12-03T11:02:45.151Z,95050.94
2022-12-03T11:05:15.784Z,95044.28
2022-12-03T11:07:44.400Z,95037.25
2022-12-03T11:10:16.727Z,95044.56
2022-12-03T11:13:23.557Z,95027.09
2022-12-03T11:15:50.779Z,95038.34
2022-12-03T11:18:50.824Z,95042.75
2022-12-03T11:21:18.129Z,95046.34
2022-12-03T11:24:15.249Z,95051.41
2022-12-03T11:27:22.018Z,95049.34
2022-12-03T11:30:10.018Z,95046.53
2022-12-03T11:33:04.222Z,95045.88
2022-12-03T11:36:11.722Z,95036.81
2022-12-03T11:38:54.539Z,95044.56
2022-12-03T11:41:33.717Z,95044.94
2022-12-03T11:44:31.759Z,95041.66
2022-12-03T11:47:13.297Z,95047.78
2022-12-03T11:49:48.062Z,95044.63
2022-12-03T11:52:25.677Z,95045.78
2022-12-03T11:55:00.038Z,95058.81
2022-12-03T11:57:33.520Z,95061.44
2022-12-03T12:00:05.209Z,95054.16
2022-12-03T12:02:33.892Z,95054.97
2022-12-03T12:05:16.479Z,95057.56
2022-12-03T12:07:43.868Z,95048.94
2022-12-03T12:10:11.905Z,95048.53
2022-12-03T12:12:43.421Z,95036.09
2022-12-03T12:15:40.759Z,95036.06
2022-12-03T12:18:41.071Z,95029.63
2022-12-03T12:21:39.871Z,95027.41
2022-12-03T12:24:32.623Z,95030.84
2022-12-03T12:27:02.685Z,95024.97
2022-12-03T12:29:29.764Z,95013.97
2022-12-03T12:32:18.241Z,95011.81
2022-12-03T12:34:49.522Z,95019.63
2022-12-03T12:37:20.604Z,95021.88
2022-12-03T12:39:48.522Z,95010.63
2022-12-03T12:42:32.985Z,95003.59
2022-12-03T12:45:09.091Z,94994.16
2022-12-03T12:47:36.751Z,94987.94
2022-12-03T12:50:11.141Z,94985.13
2022-12-03T12:52:48.503Z,94992.53
2022-12-03T12:55:15.642Z,94988.53
2022-12-03T12:57:42.662Z,94984.50
2022-12-03T13:00:15.495Z,94999.19
2022-12-03T13:02:48.912Z,94987.53
2022-12-03T13:05:18.422Z,95001.75
2022-12-03T13:07:46.176Z,95004.78
2022-12-03T13:10:34.143Z,94999.38
2022-12-03T13:13:15.753Z,94987.53
2022-12-03T13:15:49.643Z,94988.28
2022-12-03T13:18:28.101Z,95000.91
2022-12-03T13:20:56.762Z,94993.16
2022-12-03T13:23:29.782Z,94987.50
2022-12-03T13:26:04.008Z,94981.88
2022-12-03T13:28:42.163Z,94973.47
2022-12-03T13:31:24.997Z,94977.34
2022-12-03T13:33:53.584Z,94984.09
2022-12-03T13:36:27.522Z,94995.13
2022-12-03T13:38:54.623Z,94995.94
2022-12-03T13:41:21.762Z,94976.66
2022-12-03T13:43:48.842Z,94980.09
2022-12-03T13:46:16.697Z,94991.88
2022-12-03T13:48:43.935Z,94993.47
2022-12-03T13:51:23.561Z,94985.44
2022-12-03T13:53:54.402Z,94982.41
2022-12-03T13:56:27.568Z,94983.56
2022-12-03T13:58:55.662Z,94979.03
2022-12-03T14:01:22.897Z,94980.19
2022-12-03T14:03:50.695Z,94975.88
2022-12-03T14:06:17.962Z,94980.47
2022-12-03T14:08:45.242Z,94975.47
2022-12-03T14:11:13.783Z,94981.94
2022-12-03T14:13:40.862Z,94979.97
2022-12-03T14:16:08.257Z,94976.06
2022-12-03T14:18:35.402Z,94970.56
2022-12-03T14:21:02.542Z,94971.38
2022-12-03T14:23:29.583Z,94966.59
2022-12-03T14:25:56.687Z,94965.19
2022-12-03T14:28:25.304Z,94970.16
2022-12-03T14:30:52.421Z,94977.97
2022-12-03T14:33:19.621Z,94973.31
2022-12-03T14:35:46.902Z,94961.63
2022-12-03T14:38:14.062Z,94962.56
2022-12-03T14:40:41.182Z,94959.22
2022-12-03T14:43:08.426Z,94962.34
2022-12-03T14:45:37.181Z,94962.81
2022-12-03T14:48:04.527Z,94955.66
2022-12-03T14:50:31.586Z,94958.03
2022-12-03T14:52:58.762Z,94962.75
2022-12-03T14:55:26.003Z,94956.09
2022-12-03T14:57:53.202Z,94958.72
2022-12-03T15:00:21.242Z,94959.16
2022-12-03T15:02:49.858Z,94955.19
2022-12-03T15:05:17.242Z,94954.91
2022-12-03T15:07:44.420Z,94953.75
2022-12-03T15:10:11.863Z,94955.34
2022-12-03T15:12:39.014Z,94959.13
2022-12-03T15:15:07.442Z,94954.75
2022-12-03T15:17:34.535Z,94953.38
2022-12-03T15:20:03.246Z,94955.44
2022-12-03T15:22:30.782Z,94955.19
2022-12-03T15:24:58.324Z,94951.50
2022-12-03T15:27:25.503Z,94953.53
2022-12-03T15:29:52.999Z,94956.31
2022-12-03T15:32:20.366Z,94954.72
2022-12-03T15:34:47.565Z,94956.53
2022-12-03T15:37:16.062Z,94963.66
2022-12-03T15:39:52.400Z,94962.84
2022-12-03T15:42:19.662Z,94956.63
2022-12-03T15:44:46.922Z,94954.00
2022-12-03T15:47:14.125Z,94947.66
2022-12-03T15:49:41.283Z,94956.63
2022-12-03T15:52:08.401Z,94949.38
2022-12-03T15:54:36.883Z,94947.22
2022-12-03T15:57:04.122Z,94951.22
2022-12-03T15:59:31.223Z,94946.88
2022-12-03T16:01:58.517Z,94951.47
2022-12-03T16:04:25.674Z,94951.50
2022-12-03T16:06:52.822Z,94962.34
2022-12-03T16:09:25.250Z,94962.91
2022-12-03T16:11:55.925Z,94960.31
2022-12-03T16:14:23.102Z,94947.25
2022-12-03T16:16:50.183Z,94955.94
2022-12-03T16:19:17.323Z,94948.88
2022-12-03T16:21:44.482Z,94946.28
2022-12-03T16:24:11.542Z,94947.88
2022-12-03T16:26:38.719Z,94955.44
2022-12-03T16:29:07.283Z,94956.50
2022-12-03T16:31:34.558Z,94957.47
2022-12-03T16:34:01.782Z,94949.25
2022-12-03T16:36:28.984Z,94952.31
2022-12-03T16:38:56.023Z,94954.31
2022-12-03T16:41:23.203Z,94953.47
2022-12-03T16:43:50.285Z,94948.72
2022-12-03T16:46:18.965Z,94943.53
2022-12-03T16:48:46.343Z,94943.25
2022-12-03T16:51:13.861Z,94935.38
2022-12-03T16:53:41.125Z,94944.38
2022-12-03T16:56:08.881Z,94941.09
2022-12-03T16:58:36.146Z,94949.72
2022-12-03T17:01:03.460Z,94945.53
2022-12-03T17:03:34.108Z,94954.09
2022-12-03T17:06:01.807Z,94950.56
2022-12-03T17:08:28.921Z,94947.97
2022-12-03T17:10:56.171Z,94942.31
2022-12-03T17:13:23.357Z,94932.16
2022-12-03T17:15:50.816Z,94934.38
2022-12-03T17:18:18.083Z,94933.94
2022-12-03T17:20:46.661Z,94926.16
2022-12-03T17:23:13.761Z,94938.19
2022-12-03T17:25:40.820Z,94926.16
2022-12-03T17:28:07.980Z,94938.78
2022-12-03T17:30:35.122Z,94936.06
2022-12-03T17:33:02.283Z,94932.22
2022-12-03T17:35:29.467Z,94935.03
2022-12-03T17:37:58.022Z,94937.28
2022-12-03T17:40:25.333Z,94940.66
2022-12-03T17:42:52.561Z,94926.81
2022-12-03T17:45:21.642Z,94943.03
2022-12-03T17:47:48.741Z,94944.84
2022-12-03T17:50:15.940Z,94938.84
2022-12-03T17:52:43.063Z,94949.31
2022-12-03T17:55:16.262Z,94949.13
2022-12-03T17:57:51.762Z,94941.72
2022-12-03T18:00:19.608Z,94944.88
2022-12-03T18:02:47.600Z,94938.50
2022-12-03T18:05:14.922Z,94941.72
2022-12-03T18:07:42.129Z,94942.53
2022-12-03T18:10:09.572Z,94942.53
2022-12-03T18:12:38.164Z,94939.31
2022-12-03T18:15:05.920Z,94942.94
2022-12-03T18:17:33.082Z,94939.72
2022-12-03T18:20:00.210Z,94936.88
2022-12-03T18:22:28.359Z,94936.06
2022-12-03T18:24:55.941Z,94934.06
2022-12-03T18:27:24.322Z,94932.84
2022-12-03T18:29:53.273Z,94939.25
2022-12-03T18:32:28.847Z,94930.97
2022-12-03T18:34:57.387Z,94934.47
2022-12-03T18:37:27.870Z,94928.81
2022-12-03T18:39:57.578Z,94934.50
2022-12-03T18:42:25.320Z,94934.84
2022-12-03T18:44:56.244Z,94935.66
2022-12-03T18:47:26.692Z,94930.06
2022-12-03T18:49:54.233Z,94931.25
2022-12-03T18:52:23.459Z,94924.56
2022-12-03T18:54:50.680Z,94928.38
2022-12-03T18:57:17.828Z,94928.38
2022-12-03T18:59:44.923Z,94925.00
2022-12-03T19:02:45.963Z,94929.03
2022-12-03T19:05:06.422Z,94923.63
2022-12-03T19:07:33.589Z,94922.94
2022-12-03T19:10:00.699Z,94918.28
2022-12-03T19:12:27.879Z,94933.78
2022-12-03T19:14:54.929Z,94926.25
2022-12-03T19:17:23.621Z,94929.28
2022-12-03T19:19:50.633Z,94929.09
2022-12-03T19:22:17.743Z,94943.94
2022-12-03T19:24:44.843Z,94932.31
2022-12-03T19:27:12.021Z,94939.22
2022-12-03T19:29:39.460Z,94935.88
2022-12-03T19:32:06.638Z,94926.91
2022-12-03T19:34:35.540Z,94918.22
2022-12-03T19:37:02.667Z,94921.09
2022-12-03T19:39:29.818Z,94923.47
2022-12-03T19:41:56.860Z,94933.13
2022-12-03T19:44:23.899Z,94921.16
2022-12-03T19:46:51.654Z,94920.28
2022-12-03T19:49:19.040Z,94921.91
2022-12-03T19:51:48.046Z,94912.00
2022-12-03T19:54:16.245Z,94914.66
2022-12-03T19:56:44.201Z,94916.47
2022-12-03T19:59:13.219Z,94910.63
2022-12-03T20:01:41.448Z,94915.66
2022-12-03T20:04:10.522Z,94908.66
2022-12-03T20:06:38.862Z,94918.69
2022-12-03T20:09:10.202Z,94914.91
2022-12-03T20:11:39.082Z,94911.78
2022-12-03T20:14:08.681Z,94910.75
2022-12-03T20:16:36.276Z,94921.25
2022-12-03T20:19:06.170Z,94901.59
2022-12-03T20:21:35.660Z,94903.00
2022-12-03T20:24:04.223Z,94908.13
2022-12-03T20:26:33.999Z,94894.44
2022-12-03T20:29:01.360Z,94907.03
2022-12-03T20:31:31.047Z,94912.81
2022-12-03T20:34:00.142Z,94922.69
2022-12-03T20:36:29.603Z,94925.25
2022-12-03T20:38:59.659Z,94918.47
2022-12-03T20:41:26.901Z,94918.41
2022-12-03T20:43:56.044Z,94922.09
2022-12-03T20:46:25.298Z,94931.84
2022-12-03T20:48:52.963Z,94935.38
2022-12-03T20:51:22.101Z,94928.13
2022-12-03T20:53:49.962Z,94930.03
2022-12-03T20:56:18.604Z,94935.88
2022-12-03T20:58:45.860Z,94937.13
2022-12-03T21:01:16.710Z,94940.25
2022-12-03T21:03:44.621Z,94938.22
2022-12-03T21:06:12.341Z,94923.22
2022-12-03T21:08:42.438Z,94927.66
2022-12-03T21:11:10.562Z,94930.81
2022-12-03T21:13:37.861Z,94934.25
2022-12-03T21:16:08.041Z,94941.81
2022-12-03T21:18:37.343Z,94945.47
2022-12-03T21:21:06.045Z,94946.28
2022-12-03T21:23:34.980Z,94944.19
2022-12-03T21:26:04.183Z,94946.91
2022-12-03T21:28:31.261Z,94959.41
2022-12-03T21:31:02.978Z,94970.03
2022-12-03T21:33:31.445Z,94965.66
2022-12-03T21:36:01.048Z,94974.91
2022-12-03T21:38:29.680Z,94982.91
2022-12-03T21:40:57.880Z,94982.28
2022-12-03T21:43:26.281Z,94969.31
2022-12-03T21:45:53.895Z,94964.16
2022-12-03T21:48:22.100Z,94976.22
2022-12-03T21:51:00.501Z,94977.03
2022-12-03T21:53:28.541Z,94968.97
2022-12-03T21:55:55.739Z,94967.38
2022-12-03T21:58:22.920Z,94964.22
2022-12-03T22:00:50.380Z,94970.31
2022-12-03T22:03:17.650Z,94961.16
2022-12-03T22:05:44.820Z,94951.97
2022-12-03T22:08:13.508Z,94945.47
2022-12-03T22:10:41.301Z,94938.31
2022-12-03T22:13:08.761Z,94938.69
2022-12-03T22:15:38.513Z,94929.56
2022-12-03T22:18:05.780Z,94927.97
2022-12-03T22:20:32.881Z,94924.72
2022-12-03T22:22:59.940Z,94922.16
2022-12-03T22:25:28.440Z,94921.75
2022-12-03T22:27:55.561Z,94914.72
2022-12-03T22:30:22.657Z,94911.09
2022-12-03T22:32:49.760Z,94916.13
2022-12-03T22:35:17.041Z,94915.94
2022-12-03T22:37:44.125Z,94916.28
2022-12-03T22:40:11.760Z,94919.50
2022-12-03T22:42:40.252Z,94921.56
2022-12-03T22:45:08.061Z,94913.94
2022-12-03T22:47:35.201Z,94910.31
2022-12-03T22:50:02.401Z,94921.28
2022-12-03T22:52:30.530Z,94921.03
2022-12-03T22:54:57.636Z,94914.09
2022-12-03T22:57:24.781Z,94919.50
2022-12-03T22:59:53.615Z,94913.09
2022-12-03T23:02:21.033Z,94911.56
2022-12-03T23:04:48.321Z,94902.94
2022-12-03T23:07:16.803Z,94908.91
2022-12-03T23:09:43.980Z,94896.13
2022-12-03T23:12:11.281Z,94905.59
2022-12-03T23:14:38.420Z,94916.66
2022-12-03T23:17:06.920Z,94910.47
2022-12-03T23:19:33.960Z,94910.47
2022-12-03T23:22:01.163Z,94909.03
2022-12-03T23:24:28.248Z,94920.13
2022-12-03T23:26:55.380Z,94929.72
2022-12-03T23:29:22.540Z,94913.91
2022-12-03T23:31:49.712Z,94907.88
2022-12-03T23:34:18.318Z,94901.72
2022-12-03T23:36:45.442Z,94907.34
2022-12-03T23:39:12.602Z,94898.56
2022-12-03T23:41:39.623Z,94907.06
2022-12-03T23:44:06.701Z,94911.03
2022-12-03T23:46:33.850Z,94906.03
2022-12-03T23:49:01.080Z,94898.69
2022-12-03T23:51:29.560Z,94896.69
2022-12-03T23:53:57.380Z,94899.47
2022-12-03T23:56:27.023Z,94888.72
2022-12-03T23:58:54.820Z,94879.84
